createdAt,value
2017-09-07T00:00:49.674Z,1.77
2017-09-07T00:03:18.749Z,1.93
2017-09-07T00:05:47.083Z,1.70
2017-09-07T00:08:15.360Z,1.07
2017-09-07T00:10:44.421Z,2.00
2017-09-07T00:13:12.726Z,2.00
2017-09-07T00:15:41.052Z,1.70
2017-09-07T00:18:09.340Z,1.53
2017-09-07T00:20:38.420Z,2.37
2017-09-07T00:23:06.713Z,1.70
2017-09-07T00:25:35.037Z,1.60
2017-09-07T00:28:03.351Z,1.70
2017-09-07T00:30:31.676Z,1.20
2017-09-07T00:33:00.104Z,1.33
2017-09-07T00:35:28.392Z,1.50
2017-09-07T00:37:56.681Z,1.67
2017-09-07T00:40:25.033Z,1.30
2017-09-07T00:42:54.076Z,1.50
2017-09-07T00:45:22.363Z,1.13
2017-09-07T00:47:51.124Z,1.23
2017-09-07T00:50:20.178Z,1.83
2017-09-07T00:52:48.482Z,1.23
2017-09-07T00:55:16.776Z,1.40
2017-09-07T00:57:45.068Z,2.00
2017-09-07T01:00:13.380Z,1.40
2017-09-07T01:02:41.777Z,1.70
2017-09-07T01:05:10.083Z,1.03
2017-09-07T01:07:39.131Z,1.07
2017-09-07T01:10:07.467Z,1.67
2017-09-07T01:12:35.738Z,1.17
2017-09-07T01:15:04.056Z,0.77
2017-09-07T01:17:32.427Z,1.20
2017-09-07T01:20:00.714Z,1.10
2017-09-07T01:22:29.111Z,1.60
2017-09-07T01:24:57.391Z,1.00
2017-09-07T01:27:25.670Z,1.07
2017-09-07T01:29:53.987Z,1.37
2017-09-07T01:32:22.363Z,1.10
2017-09-07T01:34:50.674Z,1.27
2017-09-07T01:37:19.718Z,1.43
2017-09-07T01:39:48.030Z,1.40
2017-09-07T01:42:16.329Z,1.30
2017-09-07T01:44:44.735Z,1.83
2017-09-07T01:47:13.839Z,1.40
2017-09-07T01:49:42.146Z,1.03
2017-09-07T01:52:11.226Z,1.37
2017-09-07T01:54:39.541Z,1.70
2017-09-07T01:57:07.823Z,1.80
2017-09-07T01:59:36.927Z,2.50
2017-09-07T02:02:05.215Z,1.47
2017-09-07T02:04:33.603Z,1.40
2017-09-07T02:07:01.911Z,1.40
2017-09-07T02:09:31.003Z,1.10
2017-09-07T02:11:59.395Z,1.90
2017-09-07T02:14:27.782Z,1.70
2017-09-07T02:16:56.093Z,1.67
2017-09-07T02:19:25.182Z,1.57
2017-09-07T02:21:53.582Z,1.77
2017-09-07T02:24:21.967Z,2.10
2017-09-07T02:26:50.279Z,1.33
2017-09-07T02:29:19.359Z,1.50
2017-09-07T02:31:47.640Z,1.80
2017-09-07T02:34:16.048Z,1.70
2017-09-07T02:36:44.391Z,1.20
2017-09-07T02:39:12.711Z,2.60
2017-09-07T02:41:40.995Z,2.80
2017-09-07T02:44:09.316Z,1.70
2017-09-07T02:46:38.408Z,2.40
2017-09-07T02:49:06.739Z,2.33
2017-09-07T02:51:35.087Z,1.27
2017-09-07T02:54:03.406Z,1.47
2017-09-07T02:56:32.462Z,2.57
2017-09-07T02:59:00.780Z,1.30
2017-09-07T03:01:29.162Z,1.97
2017-09-07T03:03:57.460Z,1.50
2017-09-07T03:06:25.850Z,2.30
2017-09-07T03:08:54.126Z,1.73
2017-09-07T03:11:22.530Z,3.43
2017-09-07T03:13:51.026Z,2.27
2017-09-07T03:16:19.310Z,3.23
2017-09-07T03:18:47.596Z,2.00
2017-09-07T03:21:15.903Z,2.50
2017-09-07T03:23:45.006Z,2.70
2017-09-07T03:26:16.256Z,2.30
2017-09-07T03:28:44.855Z,2.23
2017-09-07T03:31:13.185Z,3.00
2017-09-07T03:33:41.458Z,3.60
2017-09-07T03:36:10.515Z,2.60
2017-09-07T03:38:38.823Z,2.23
2017-09-07T03:41:07.108Z,3.00
2017-09-07T03:43:35.583Z,2.37
2017-09-07T03:46:03.907Z,2.40
2017-09-07T03:48:32.983Z,2.80
2017-09-07T03:51:01.307Z,2.70
2017-09-07T03:53:29.587Z,2.30
2017-09-07T03:55:57.902Z,3.70
2017-09-07T03:58:26.240Z,3.03
2017-09-07T04:00:54.534Z,2.00
2017-09-07T04:03:22.959Z,3.07
2017-09-07T04:05:51.251Z,2.77
2017-09-07T04:08:19.531Z,2.43
2017-09-07T04:10:47.838Z,3.30
2017-09-07T04:13:16.123Z,2.50
2017-09-07T04:15:44.430Z,2.30
2017-09-07T04:18:13.486Z,2.60
2017-09-07T04:20:41.798Z,2.67
2017-09-07T04:23:10.079Z,2.50
2017-09-07T04:25:38.357Z,1.90
2017-09-07T04:28:06.763Z,2.33
2017-09-07T04:30:35.070Z,3.43
2017-09-07T04:33:03.387Z,2.33
2017-09-07T04:38:04.643Z,2.23
2017-09-07T04:40:32.962Z,2.50
2017-09-07T04:43:02.050Z,3.17
2017-09-07T04:45:31.126Z,3.80
2017-09-07T04:47:59.446Z,2.23
2017-09-07T04:50:27.727Z,2.53
2017-09-07T04:52:56.038Z,2.33
2017-09-07T04:55:25.087Z,4.00
2017-09-07T04:57:53.404Z,2.57
2017-09-07T05:00:21.683Z,3.30
2017-09-07T05:02:49.986Z,2.70
2017-09-07T05:05:18.306Z,1.77
2017-09-07T05:07:47.346Z,2.13
2017-09-07T05:10:15.678Z,2.33
2017-09-07T05:12:43.990Z,2.53
2017-09-07T05:15:13.174Z,2.63
2017-09-07T05:17:41.479Z,2.07
2017-09-07T05:20:09.856Z,3.63
2017-09-07T05:22:38.151Z,2.57
2017-09-07T05:25:06.543Z,2.97
2017-09-07T05:27:34.927Z,2.87
2017-09-07T05:30:03.318Z,5.80
2017-09-07T05:32:31.607Z,3.40
2017-09-07T05:35:00.246Z,3.97
2017-09-07T05:37:29.295Z,3.00
2017-09-07T05:39:57.603Z,2.50
2017-09-07T05:42:25.894Z,3.23
2017-09-07T05:44:54.206Z,3.00
2017-09-07T05:47:23.247Z,2.97
2017-09-07T05:49:51.611Z,3.10
2017-09-07T05:52:20.726Z,3.63
2017-09-07T05:54:49.766Z,2.63
2017-09-07T05:57:18.084Z,3.40
2017-09-07T05:59:46.395Z,3.07
2017-09-07T06:02:15.438Z,3.03
2017-09-07T06:04:43.763Z,2.00
2017-09-07T06:07:12.052Z,3.37
2017-09-07T06:09:40.330Z,3.97
2017-09-07T06:12:08.638Z,2.90
2017-09-07T06:14:36.947Z,3.00
2017-09-07T06:17:06.135Z,2.50
2017-09-07T06:19:34.424Z,2.23
2017-09-07T06:22:02.915Z,2.50
2017-09-07T06:24:31.214Z,4.20
2017-09-07T06:26:59.636Z,3.60
2017-09-07T06:29:28.691Z,2.93
2017-09-07T06:31:57.104Z,3.57
2017-09-07T06:34:25.387Z,4.37
2017-09-07T06:36:53.694Z,3.37
2017-09-07T06:39:22.752Z,5.10
2017-09-07T06:41:51.060Z,3.27
2017-09-07T06:44:19.364Z,3.37
2017-09-07T06:46:47.646Z,4.00
2017-09-07T06:49:15.964Z,4.80
2017-09-07T06:51:45.047Z,3.57
2017-09-07T06:54:13.367Z,4.87
2017-09-07T06:56:42.542Z,3.27
2017-09-07T06:59:10.934Z,3.00
2017-09-07T07:01:39.215Z,2.80
2017-09-07T07:04:07.518Z,3.00
2017-09-07T07:06:35.831Z,3.40
2017-09-07T07:09:04.919Z,3.30
2017-09-07T07:11:33.306Z,3.23
2017-09-07T07:14:01.695Z,2.70
2017-09-07T07:16:30.082Z,3.13
2017-09-07T07:18:58.386Z,2.87
2017-09-07T07:21:26.666Z,2.43
2017-09-07T07:23:54.987Z,3.00
2017-09-07T07:26:24.032Z,2.70
2017-09-07T07:28:52.340Z,3.30
2017-09-07T07:31:20.614Z,2.37
2017-09-07T07:33:49.030Z,2.53
2017-09-07T07:36:17.347Z,3.27
2017-09-07T07:38:46.423Z,4.00
2017-09-07T07:41:14.731Z,2.57
2017-09-07T07:43:43.111Z,2.87
2017-09-07T07:46:11.394Z,2.37
2017-09-07T07:48:39.701Z,2.50
2017-09-07T07:51:07.988Z,2.70
2017-09-07T07:53:36.366Z,2.53
2017-09-07T07:56:04.647Z,2.20
2017-09-07T07:58:32.927Z,2.20
2017-09-07T08:01:01.243Z,2.60
2017-09-07T08:03:29.534Z,2.93
2017-09-07T08:05:57.848Z,2.30
2017-09-07T08:08:26.919Z,2.00
2017-09-07T08:10:55.236Z,1.73
2017-09-07T08:13:23.599Z,1.97
2017-09-07T08:15:51.907Z,2.40
2017-09-07T08:18:20.955Z,2.07
2017-09-07T08:20:49.263Z,2.43
2017-09-07T08:23:17.652Z,1.83
2017-09-07T08:25:45.935Z,2.00
2017-09-07T08:28:14.259Z,2.53
2017-09-07T08:30:42.539Z,2.70
2017-09-07T08:33:10.847Z,2.40
2017-09-07T08:35:39.127Z,3.23
2017-09-07T08:38:07.446Z,2.97
2017-09-07T08:40:36.499Z,3.23
2017-09-07T08:43:04.810Z,2.03
2017-09-07T08:45:33.891Z,2.60
2017-09-07T08:48:02.196Z,1.63
2017-09-07T08:50:30.474Z,2.00
2017-09-07T08:52:58.787Z,2.03
2017-09-07T08:55:27.835Z,1.63
2017-09-07T08:57:56.138Z,1.50
2017-09-07T09:00:24.446Z,1.87
2017-09-07T09:02:52.762Z,1.40
2017-09-07T09:05:21.155Z,1.73
2017-09-07T09:07:51.505Z,1.20
2017-09-07T09:10:20.588Z,1.50
2017-09-07T09:12:48.896Z,1.40
2017-09-07T09:15:17.206Z,1.30
2017-09-07T09:17:46.379Z,1.47
2017-09-07T09:20:14.694Z,1.10
2017-09-07T09:22:43.739Z,1.53
2017-09-07T09:25:12.023Z,1.60
2017-09-07T09:27:40.354Z,1.20
2017-09-07T09:30:08.719Z,1.23
2017-09-07T09:32:37.030Z,1.77
2017-09-07T09:35:05.433Z,1.50
2017-09-07T09:37:33.714Z,1.30
2017-09-07T09:40:02.028Z,1.00
2017-09-07T09:42:31.071Z,1.10
2017-09-07T09:44:59.507Z,2.13
2017-09-07T09:47:27.783Z,1.77
2017-09-07T09:49:56.092Z,1.27
2017-09-07T09:52:25.166Z,1.07
2017-09-07T09:54:53.475Z,1.03
2017-09-07T09:57:21.751Z,1.53
2017-09-07T09:59:50.056Z,1.10
2017-09-07T10:02:18.366Z,1.33
2017-09-07T10:04:47.411Z,1.60
2017-09-07T10:07:15.722Z,1.63
2017-09-07T10:09:44.030Z,1.27
2017-09-07T10:12:12.307Z,1.57
2017-09-07T10:14:40.615Z,1.00
2017-09-07T10:17:08.926Z,1.67
2017-09-07T10:19:38.015Z,1.23
2017-09-07T10:22:06.295Z,0.90
2017-09-07T10:24:34.591Z,1.93
2017-09-07T10:27:02.980Z,1.17
2017-09-07T10:29:31.407Z,1.57
2017-09-07T10:32:00.587Z,1.13
2017-09-07T10:34:28.967Z,1.40
2017-09-07T10:36:57.283Z,2.47
2017-09-07T10:39:25.649Z,2.13
2017-09-07T10:41:53.939Z,0.90
2017-09-07T10:44:22.331Z,1.00
2017-09-07T10:46:51.380Z,1.40
2017-09-07T10:49:21.168Z,1.20
2017-09-07T10:51:49.475Z,1.30
2017-09-07T10:54:18.555Z,1.30
2017-09-07T10:56:46.947Z,1.80
2017-09-07T10:59:15.227Z,1.17
2017-09-07T11:01:43.507Z,2.27
2017-09-07T11:04:11.819Z,1.10
2017-09-07T11:06:40.098Z,1.83
2017-09-07T11:09:08.375Z,1.20
2017-09-07T11:11:36.687Z,1.03
2017-09-07T11:14:04.962Z,1.10
2017-09-07T11:16:33.275Z,1.00
2017-09-07T11:19:01.586Z,2.37
2017-09-07T11:21:30.659Z,1.10
2017-09-07T11:23:58.972Z,1.20
2017-09-07T11:26:28.018Z,1.30
2017-09-07T11:28:56.331Z,1.10
2017-09-07T11:31:24.639Z,1.33
2017-09-07T11:33:52.918Z,1.70
2017-09-07T11:36:21.227Z,1.10
2017-09-07T11:38:49.535Z,1.10
2017-09-07T11:41:18.602Z,2.03
2017-09-07T11:43:46.895Z,1.50
2017-09-07T11:46:15.203Z,1.10
2017-09-07T11:48:43.511Z,1.77
2017-09-07T11:51:12.559Z,1.30
2017-09-07T11:53:40.843Z,1.40
2017-09-07T11:56:09.150Z,1.27
2017-09-07T11:58:37.430Z,1.10
2017-09-07T12:01:05.738Z,1.23
2017-09-07T12:03:34.047Z,1.10
2017-09-07T12:06:02.422Z,1.67
2017-09-07T12:08:30.726Z,1.07
2017-09-07T12:10:59.035Z,1.67
2017-09-07T12:13:28.079Z,1.87
2017-09-07T12:15:56.490Z,1.70
2017-09-07T12:18:24.762Z,1.50
2017-09-07T12:20:53.079Z,1.40
2017-09-07T12:23:21.395Z,1.43
2017-09-07T12:25:50.955Z,1.83
2017-09-07T12:28:19.267Z,1.50
2017-09-07T12:30:47.579Z,1.63
2017-09-07T12:33:16.666Z,1.07
2017-09-07T12:35:44.978Z,1.47
2017-09-07T12:38:13.347Z,1.33
2017-09-07T12:40:41.655Z,1.33
2017-09-07T12:43:09.935Z,1.33
2017-09-07T12:45:38.242Z,1.47
2017-09-07T12:48:07.287Z,1.70
2017-09-07T12:50:35.615Z,1.67
2017-09-07T12:53:04.719Z,1.30
2017-09-07T12:55:33.000Z,1.40
2017-09-07T12:58:01.316Z,1.40
2017-09-07T13:00:29.636Z,1.40
2017-09-07T13:02:57.911Z,1.00
2017-09-07T13:05:27.087Z,1.03
2017-09-07T13:07:55.379Z,1.00
2017-09-07T13:10:23.663Z,1.33
2017-09-07T13:12:52.054Z,1.00
2017-09-07T13:15:21.103Z,1.23
2017-09-07T13:17:50.581Z,0.90
2017-09-07T13:20:18.879Z,1.50
2017-09-07T13:22:47.296Z,1.10
2017-09-07T13:25:15.646Z,1.43
2017-09-07T13:27:43.943Z,1.07
2017-09-07T13:30:12.263Z,1.30
2017-09-07T13:32:41.303Z,1.03
2017-09-07T13:35:09.582Z,1.60
2017-09-07T13:37:37.919Z,1.00
2017-09-07T13:40:06.964Z,0.70
2017-09-07T13:42:36.135Z,1.10
2017-09-07T13:45:04.411Z,1.03
2017-09-07T13:47:33.008Z,0.90
2017-09-07T13:50:01.311Z,1.10
2017-09-07T13:52:29.697Z,1.00
2017-09-07T13:54:58.087Z,1.20
2017-09-07T13:57:26.394Z,1.30
2017-09-07T13:59:55.483Z,1.07
2017-09-07T14:02:23.795Z,0.90
2017-09-07T14:04:52.163Z,1.37
2017-09-07T14:07:20.476Z,0.97
2017-09-07T14:09:49.522Z,1.00
2017-09-07T14:12:17.831Z,1.10
2017-09-07T14:14:46.231Z,1.00
2017-09-07T14:17:14.507Z,0.90
2017-09-07T14:19:42.919Z,0.90
2017-09-07T14:22:11.203Z,0.90
2017-09-07T14:24:39.495Z,1.17
2017-09-07T14:27:07.887Z,0.90
2017-09-07T14:29:36.167Z,0.90
2017-09-07T14:32:04.479Z,0.93
2017-09-07T14:34:32.763Z,0.80
2017-09-07T14:37:01.871Z,0.80
2017-09-07T14:39:30.914Z,1.60
2017-09-07T14:41:59.987Z,0.80
2017-09-07T14:44:28.371Z,1.07
2017-09-07T14:46:56.681Z,0.90
2017-09-07T14:49:25.755Z,0.90
2017-09-07T14:51:54.163Z,0.97
2017-09-07T14:54:23.257Z,1.07
2017-09-07T14:56:51.906Z,1.00
2017-09-07T14:59:20.187Z,1.17
2017-09-07T15:01:49.263Z,0.70
2017-09-07T15:04:17.647Z,0.70
2017-09-07T15:06:45.927Z,0.80
2017-09-07T15:09:14.250Z,0.90
2017-09-07T15:11:42.623Z,0.60
2017-09-07T15:14:11.010Z,0.70
2017-09-07T15:16:39.327Z,0.80
2017-09-07T15:19:08.367Z,1.13
2017-09-07T15:21:36.679Z,0.83
2017-09-07T15:24:04.955Z,0.80
2017-09-07T15:26:33.263Z,1.00
2017-09-07T15:29:01.564Z,0.80
2017-09-07T15:31:29.845Z,1.10
2017-09-07T15:33:58.155Z,0.80
2017-09-07T15:36:27.251Z,0.70
2017-09-07T15:38:55.643Z,0.80
2017-09-07T15:41:23.927Z,0.80
2017-09-07T15:43:52.327Z,0.80
2017-09-07T15:46:20.712Z,0.80
2017-09-07T15:48:49.002Z,1.03
2017-09-07T15:51:17.319Z,0.73
2017-09-07T15:53:46.363Z,0.80
2017-09-07T15:56:14.643Z,1.07
2017-09-07T15:58:42.979Z,0.70
2017-09-07T16:01:11.271Z,1.23
2017-09-07T16:03:40.347Z,0.90
2017-09-07T16:06:08.868Z,0.80
2017-09-07T16:08:37.155Z,0.63
2017-09-07T16:11:05.437Z,0.90
2017-09-07T16:13:33.746Z,1.23
2017-09-07T16:16:02.022Z,1.07
2017-09-07T16:18:30.347Z,0.80
2017-09-07T16:20:59.395Z,0.90
2017-09-07T16:23:27.675Z,0.80
2017-09-07T16:25:55.999Z,0.83
2017-09-07T16:28:24.395Z,1.10
2017-09-07T16:30:52.703Z,1.00
2017-09-07T16:33:21.763Z,1.00
2017-09-07T16:35:50.081Z,0.90
2017-09-07T16:38:18.363Z,0.97
2017-09-07T16:40:46.643Z,1.10
2017-09-07T16:43:14.951Z,1.57
2017-09-07T16:45:43.339Z,1.33
2017-09-07T16:48:11.660Z,1.13
2017-09-07T16:50:40.707Z,1.00
2017-09-07T16:53:08.986Z,1.87
2017-09-07T16:55:37.295Z,2.47
2017-09-07T16:58:05.571Z,1.60
2017-09-07T17:00:33.890Z,1.13
2017-09-07T17:03:02.283Z,1.07
2017-09-07T17:05:30.667Z,1.07
2017-09-07T17:07:58.963Z,1.10
2017-09-07T17:10:27.271Z,1.30
2017-09-07T17:12:56.347Z,2.47
2017-09-07T17:15:24.655Z,1.30
2017-09-07T17:17:53.035Z,1.83
2017-09-07T17:20:21.346Z,1.87
2017-09-07T17:22:50.442Z,1.90
2017-09-07T17:25:19.514Z,2.53
2017-09-07T17:27:47.791Z,1.73
2017-09-07T17:30:16.100Z,1.40
2017-09-07T17:32:44.410Z,1.70
2017-09-07T17:35:12.686Z,2.60
2017-09-07T17:37:40.995Z,3.53
2017-09-07T17:40:09.374Z,3.20
2017-09-07T17:42:37.883Z,3.00
2017-09-07T17:45:06.260Z,1.70
2017-09-07T17:47:34.539Z,1.90
2017-09-07T17:50:02.938Z,3.10
2017-09-07T17:52:31.223Z,4.00
2017-09-07T17:54:59.619Z,9.33
2017-09-07T17:57:28.011Z,5.83
2017-09-07T17:59:56.327Z,5.93
2017-09-07T18:02:25.415Z,7.17
2017-09-07T18:04:53.702Z,14.23
2017-09-07T18:07:22.031Z,12.77
2017-09-07T18:09:50.338Z,11.80
2017-09-07T18:12:18.631Z,11.10
2017-09-07T18:14:46.944Z,8.47
2017-09-07T18:17:15.246Z,7.30
2017-09-07T18:19:43.535Z,5.70
2017-09-07T18:22:11.839Z,5.87
2017-09-07T18:24:41.148Z,3.10
2017-09-07T18:27:09.455Z,3.30
2017-09-07T18:29:38.527Z,3.13
2017-09-07T18:32:06.851Z,1.90
2017-09-07T18:34:35.930Z,1.70
2017-09-07T18:37:04.218Z,2.90
2017-09-07T18:39:32.611Z,4.83
2017-09-07T18:42:01.003Z,5.30
2017-09-07T18:44:30.732Z,6.10
2017-09-07T18:46:59.043Z,4.10
2017-09-07T18:49:28.091Z,5.53
2017-09-07T18:51:56.400Z,3.20
2017-09-07T18:54:24.719Z,3.17
2017-09-07T18:56:52.994Z,3.83
2017-09-07T18:59:21.322Z,4.03
2017-09-07T19:01:49.667Z,3.70
2017-09-07T19:04:17.966Z,3.80
2017-09-07T19:06:46.272Z,3.93
2017-09-07T19:09:15.360Z,3.03
2017-09-07T19:11:43.848Z,3.90
2017-09-07T19:14:12.232Z,4.17
2017-09-07T19:16:40.523Z,4.70
2017-09-07T19:19:08.831Z,6.10
2017-09-07T19:21:37.112Z,5.47
2017-09-07T19:24:05.495Z,5.03
2017-09-07T19:26:33.775Z,5.10
2017-09-07T19:29:02.136Z,4.87
2017-09-07T19:31:30.413Z,3.90
2017-09-07T19:33:59.158Z,4.93
2017-09-07T19:36:27.459Z,4.53
2017-09-07T19:38:55.751Z,3.77
2017-09-07T19:41:24.036Z,4.60
2017-09-07T19:43:52.527Z,3.53
2017-09-07T19:46:20.820Z,3.67
2017-09-07T19:48:49.214Z,3.00
2017-09-07T19:51:17.514Z,3.93
2017-09-07T19:53:46.595Z,3.60
2017-09-07T19:56:14.879Z,3.90
2017-09-07T19:58:43.383Z,3.73
2017-09-07T20:01:11.663Z,5.23
2017-09-07T20:03:39.971Z,3.50
2017-09-07T20:06:08.275Z,4.10
2017-09-07T20:08:37.326Z,4.20
2017-09-07T20:11:05.611Z,3.90
2017-09-07T20:13:33.947Z,2.83
2017-09-07T20:16:02.255Z,4.50
2017-09-07T20:18:31.335Z,3.80
2017-09-07T20:20:59.621Z,4.43
2017-09-07T20:23:27.927Z,4.37
2017-09-07T20:25:56.235Z,4.10
2017-09-07T20:28:25.319Z,3.37
2017-09-07T20:30:53.596Z,4.07
2017-09-07T20:33:21.911Z,2.60
2017-09-07T20:35:50.992Z,4.73
2017-09-07T20:38:19.272Z,4.37
2017-09-07T20:40:47.579Z,3.57
2017-09-07T20:43:15.883Z,3.60
2017-09-07T20:45:44.930Z,3.80
2017-09-07T20:48:13.238Z,4.10
2017-09-07T20:50:41.550Z,4.07
2017-09-07T20:53:09.871Z,3.60
2017-09-07T20:55:39.200Z,4.07
2017-09-07T20:58:12.343Z,5.43
2017-09-07T21:00:41.772Z,4.83
2017-09-07T21:03:11.131Z,3.53
2017-09-07T21:05:44.372Z,3.47
2017-09-07T21:08:15.466Z,4.27
2017-09-07T21:10:46.417Z,4.30
2017-09-07T21:13:17.723Z,4.70
2017-09-07T21:15:46.355Z,4.07
2017-09-07T21:18:14.671Z,3.60
2017-09-07T21:20:42.979Z,4.00
2017-09-07T21:23:11.259Z,4.30
2017-09-07T21:25:39.642Z,4.00
2017-09-07T21:28:07.923Z,4.40
2017-09-07T21:30:36.239Z,3.70
2017-09-07T21:33:05.286Z,5.33
2017-09-07T21:35:33.566Z,5.80
2017-09-07T21:38:01.874Z,3.73
2017-09-07T21:40:30.199Z,3.77
2017-09-07T21:42:58.592Z,3.57
2017-09-07T21:45:26.903Z,4.07
2017-09-07T21:47:55.951Z,4.00
2017-09-07T21:50:24.265Z,4.63
2017-09-07T21:52:52.567Z,3.70
2017-09-07T21:55:20.847Z,3.53
2017-09-07T21:57:49.159Z,3.50
2017-09-07T22:00:17.740Z,4.20
2017-09-07T22:02:46.027Z,4.20
2017-09-07T22:05:14.347Z,4.13
2017-09-07T22:07:43.395Z,4.57
2017-09-07T22:10:11.679Z,3.90
2017-09-07T22:12:40.004Z,4.10
2017-09-07T22:15:08.391Z,5.00
2017-09-07T22:17:36.914Z,4.47
2017-09-07T22:20:05.999Z,4.27
2017-09-07T22:22:34.279Z,4.83
2017-09-07T22:25:02.559Z,4.10
2017-09-07T22:27:30.886Z,3.80
2017-09-07T22:29:59.934Z,4.17
2017-09-07T22:32:28.214Z,4.70
2017-09-07T22:34:57.699Z,4.20
2017-09-07T22:37:26.884Z,4.10
2017-09-07T22:39:55.195Z,5.20
2017-09-07T22:42:24.279Z,5.27
2017-09-07T22:44:52.558Z,4.43
2017-09-07T22:47:20.871Z,3.87
2017-09-07T22:49:49.158Z,4.30
2017-09-07T22:52:17.643Z,3.77
2017-09-07T22:54:45.923Z,5.40
2017-09-07T22:57:14.203Z,3.87
2017-09-07T22:59:42.511Z,3.87
2017-09-07T23:02:10.787Z,4.80
2017-09-07T23:04:39.099Z,5.00
2017-09-07T23:07:08.171Z,4.30
2017-09-07T23:09:36.454Z,5.17
2017-09-07T23:12:04.743Z,4.03
2017-09-07T23:14:33.171Z,4.43
2017-09-07T23:17:01.455Z,4.37
2017-09-07T23:19:29.840Z,3.80
2017-09-07T23:21:58.231Z,3.97
2017-09-07T23:24:26.512Z,4.10
2017-09-07T23:26:54.870Z,4.17
2017-09-07T23:29:23.159Z,3.93
2017-09-07T23:31:51.504Z,4.60
2017-09-07T23:34:19.974Z,5.27
2017-09-07T23:36:48.274Z,5.80
2017-09-07T23:39:17.383Z,3.73
2017-09-07T23:41:45.667Z,4.43
2017-09-07T23:44:13.948Z,4.80
2017-09-07T23:46:42.259Z,4.00
2017-09-07T23:49:11.306Z,5.37
2017-09-07T23:51:39.591Z,4.47
2017-09-07T23:54:07.903Z,4.67
2017-09-07T23:56:36.227Z,4.90
2017-09-07T23:59:04.508Z,3.87
